Terminal Aerodrome Forecast
Issued by NWS Milwaukee/Sullivan, WI

Home | Current Version | Previous Version | Text Only | Print | Product List | Glossary On
Versions: 1 2 3 4 5 6 7 8 9 10 11 12 13 14 15 16 17 18 19 20 21 22 23 24 25 26 27 28 29 30 31
000
FTUS43 KMKX 060726 AAA
TAFMSN
TAF AMD
KMSN 060726Z 0607/0706 18008KT P6SM BKN030
     FM060900 18008KT P6SM SCT030 BKN250
     FM061700 19010KT P6SM VCTS SCT050CB BKN250
     FM061800 20010G22KT P6SM BKN250
     FM062100 19015G24KT 5SM -TSRA SCT035CB BKN090
     FM070100 22009KT 3SM TSRA BKN035CB OVC060
     FM070400 26007KT 5SM -SHRA OVC015
     FM070500 31007KT P6SM OVC015=

USA.gov is the U.S. government's official web portal to all federal, state and local government web resources and services.